Terminal Aerodrome Forecast
Issued by NWS Wichita, KS

Home | Current Version | Previous Version | Text Only | Print | Product List | Glossary On
Versions: 1 2 3 4 5 6 7 8 9 10 11 12 13 14 15 16 17 18
000
FTUS43 KICT 012300
TAFICT
TAF
KICT 012320Z 0200/0224 04008KT P6SM VCTS BKN040CB
      TEMPO 0200/0202 5SM TSRA
     FM020200 04007KT P6SM SCT050 BKN150
     FM020800 VRB03KT P6SM VCTS BKN070CB
     FM021100 08006KT 5SM BR SCT150
     FM021400 12007KT P6SM SCT150=

USA.gov is the U.S. government's official web portal to all federal, state and local government web resources and services.